Time;durP1;ratioP1;P1;durP2;ratioP2;P2;SDS_P1;SDS_P2;PMS_P1;PMS_P2;Temp;Humidity;BMP_temperature;BMP_pressure;BME280_temperature;BME280_humidity;BME280_pressure;Samples;Min_cycle;Max_cycle;Signal;HPM_P1;HPM_P2
2024/04/02 00:00:45;;;;;;;0.45;0.40;;;10.00;99.90;;;;;;4953211;29;20113;-79
2024/04/02 00:03:12;;;;;;;0.98;0.40;;;9.90;99.90;;;;;;4954269;29;20531;-79
2024/04/02 00:05:40;;;;;;;0.90;0.47;;;9.80;99.90;;;;;;4954240;29;20523;-79
2024/04/02 00:08:06;;;;;;;0.47;0.40;;;9.80;99.90;;;;;;4969081;28;20480;-79
2024/04/02 00:10:33;;;;;;;1.70;0.93;;;9.70;99.90;;;;;;4953021;29;20037;-79
2024/04/02 00:13:00;;;;;;;0.65;0.60;;;9.70;99.90;;;;;;4952148;28;20502;-79
2024/04/02 00:15:26;;;;;;;0.60;0.60;;;9.70;99.90;;;;;;4954326;29;20027;-80
2024/04/02 00:17:52;;;;;;;1.02;0.77;;;9.80;99.90;;;;;;4952949;29;20035;-79
2024/04/02 00:20:18;;;;;;;1.08;0.45;;;9.70;99.90;;;;;;4954184;28;20066;-80
2024/04/02 00:22:44;;;;;;;0.70;0.52;;;9.60;99.90;;;;;;4948765;29;20189;-79
2024/04/02 00:25:10;;;;;;;1.55;0.40;;;9.60;99.90;;;;;;4953988;29;20114;-80
2024/04/02 00:27:37;;;;;;;1.00;0.40;;;9.50;99.90;;;;;;4952551;29;20031;-79
2024/04/02 00:30:03;;;;;;;2.67;0.55;;;9.50;99.90;;;;;;4952523;28;20447;-79
2024/04/02 00:32:30;;;;;;;0.20;0.20;;;9.50;99.90;;;;;;4952393;29;20031;-79
2024/04/02 00:34:55;;;;;;;0.22;0.22;;;9.50;99.90;;;;;;4944876;29;20110;-79
2024/04/02 00:37:21;;;;;;;1.55;0.40;;;9.50;99.90;;;;;;4952375;29;20119;-79
2024/04/02 00:39:47;;;;;;;1.00;0.40;;;9.50;99.90;;;;;;4952509;29;20082;-80
2024/04/02 00:42:13;;;;;;;0.65;0.45;;;9.50;99.90;;;;;;4953760;29;20082;-79
2024/04/02 00:44:39;;;;;;;1.00;0.55;;;9.50;99.90;;;;;;4953737;29;20027;-80
2024/04/02 00:47:07;;;;;;;2.00;0.65;;;9.60;99.90;;;;;;4952186;29;20487;-79
2024/04/02 00:49:34;;;;;;;0.45;0.40;;;9.60;99.90;;;;;;4953639;28;20027;-79
2024/04/02 00:52:01;;;;;;;0.50;0.50;;;9.60;99.90;;;;;;4953513;29;20483;-79
2024/04/02 00:54:28;;;;;;;0.70;0.70;;;9.50;99.90;;;;;;4952124;29;20031;-79
2024/04/02 00:56:53;;;;;;;2.00;0.50;;;9.50;99.90;;;;;;4952346;29;20379;-79
2024/04/02 00:59:21;;;;;;;0.77;0.75;;;9.60;99.90;;;;;;4936336;29;20027;-80
2024/04/02 01:01:47;;;;;;;1.08;0.98;;;9.60;99.40;;;;;;4953105;28;20054;-79
2024/04/02 01:04:13;;;;;;;1.40;0.60;;;9.60;99.40;;;;;;4953533;29;20031;-79
2024/04/02 01:06:39;;;;;;;2.28;0.95;;;9.60;99.90;;;;;;4952009;29;20038;-79
2024/04/02 01:09:05;;;;;;;0.98;0.70;;;9.60;92.70;;;;;;4951963;29;20550;-79
2024/04/02 01:11:37;;;;;;;2.08;0.85;;;9.50;92.60;;;;;;4953298;29;20021;-80
2024/04/02 01:14:06;;;;;;;1.27;0.85;;;9.60;96.70;;;;;;4948674;29;20097;-80
2024/04/02 01:16:32;;;;;;;3.28;0.90;;;9.60;91.90;;;;;;4952059;29;20023;-79
2024/04/02 01:18:57;;;;;;;1.13;1.02;;;9.70;83.90;;;;;;4953293;29;20061;-80
2024/04/02 01:21:23;;;;;;;0.60;0.60;;;9.70;75.70;;;;;;4951676;29;20479;-79
2024/04/02 01:23:49;;;;;;;0.82;0.80;;;9.70;94.20;;;;;;4933792;29;20074;-79
2024/04/02 01:26:14;;;;;;;0.75;0.60;;;9.70;84.50;;;;;;4951972;29;20081;-79
2024/04/02 01:28:40;;;;;;;1.00;0.90;;;9.80;82.30;;;;;;4953091;29;20035;-79
2024/04/02 01:31:06;;;;;;;3.42;0.80;;;9.80;86.30;;;;;;4935740;29;20043;-80
2024/04/02 01:33:33;;;;;;;0.80;0.80;;;9.80;91.20;;;;;;4951740;29;20519;-80
2024/04/02 01:35:58;;;;;;;3.10;0.50;;;9.70;80.10;;;;;;4951646;29;20031;-80
2024/04/02 01:38:24;;;;;;;1.92;0.95;;;9.80;84.90;;;;;;4951793;29;20134;-80
2024/04/02 01:40:51;;;;;;;0.93;0.65;;;9.80;83.70;;;;;;4953201;29;20034;-80
2024/04/02 01:43:17;;;;;;;1.05;0.90;;;9.70;92.10;;;;;;4953045;29;20099;-79
2024/04/02 01:45:42;;;;;;;0.57;0.57;;;9.70;91.30;;;;;;4951678;29;20028;-79
2024/04/02 01:48:08;;;;;;;0.95;0.80;;;9.70;98.80;;;;;;4953035;29;20031;-80
2024/04/02 01:50:34;;;;;;;0.68;0.68;;;9.50;99.90;;;;;;4932608;28;20031;-79
2024/04/02 01:52:59;;;;;;;1.70;0.60;;;9.50;99.90;;;;;;4945560;29;20049;-80
2024/04/02 01:55:25;;;;;;;1.77;0.60;;;9.40;99.90;;;;;;4952810;29;20443;-80
2024/04/02 01:57:51;;;;;;;1.42;0.68;;;9.30;99.90;;;;;;4935702;29;20127;-80
2024/04/02 02:00:18;;;;;;;0.50;0.50;;;9.30;99.90;;;;;;4951637;29;20031;-80
2024/04/02 02:02:44;;;;;;;0.60;0.60;;;9.30;99.90;;;;;;4951484;29;20039;-80
2024/04/02 02:05:09;;;;;;;1.30;0.70;;;9.30;99.90;;;;;;4949617;28;20062;-80
2024/04/02 02:07:35;;;;;;;0.40;0.40;;;9.20;99.90;;;;;;4951067;28;20058;-80
2024/04/02 02:10:01;;;;;;;0.50;0.50;;;9.30;99.90;;;;;;4952173;29;20027;-80
2024/04/02 02:12:27;;;;;;;0.60;0.60;;;9.30;99.90;;;;;;4952328;28;20023;-80
2024/04/02 02:14:53;;;;;;;1.10;1.05;;;9.20;99.90;;;;;;4956364;29;20103;-80
2024/04/02 02:17:18;;;;;;;1.70;0.50;;;9.20;99.90;;;;;;4956394;29;20070;-79
2024/04/02 02:19:44;;;;;;;0.50;0.50;;;9.30;99.90;;;;;;4954583;29;20039;-79
2024/04/02 02:22:10;;;;;;;1.20;0.50;;;9.30;99.90;;;;;;4938951;29;20498;-80
2024/04/02 02:24:35;;;;;;;0.40;0.40;;;9.30;99.90;;;;;;4956218;29;20027;-79
2024/04/02 02:27:01;;;;;;;0.73;0.40;;;9.40;99.90;;;;;;4954657;29;20031;-79
2024/04/02 02:29:27;;;;;;;0.57;0.57;;;9.40;96.50;;;;;;4956032;28;20035;-80
2024/04/02 02:31:53;;;;;;;1.60;0.52;;;9.40;94.20;;;;;;4954580;29;20207;-80
2024/04/02 02:34:18;;;;;;;1.58;0.32;;;9.30;93.50;;;;;;4954731;29;20509;-79
2024/04/02 02:36:44;;;;;;;0.47;0.47;;;9.30;97.70;;;;;;4955916;29;20559;-79
2024/04/02 02:39:13;;;;;;;0.52;0.43;;;9.30;98.70;;;;;;4938721;29;20027;-79
2024/04/02 02:41:39;;;;;;;1.38;0.45;;;9.30;98.60;;;;;;4954487;29;20027;-80
2024/04/02 02:44:05;;;;;;;0.40;0.40;;;9.30;98.50;;;;;;4954257;29;20036;-80
2024/04/02 02:46:31;;;;;;;2.00;0.40;;;9.30;96.50;;;;;;4955678;29;20023;-79
2024/04/02 02:48:59;;;;;;;0.45;0.45;;;9.40;99.90;;;;;;4954221;29;20027;-80
2024/04/02 02:51:25;;;;;;;3.88;0.40;;;9.30;99.90;;;;;;4955640;29;20040;-80
2024/04/02 02:53:51;;;;;;;0.80;0.40;;;9.40;96.60;;;;;;4954003;28;20119;-80
2024/04/02 02:56:17;;;;;;;1.85;0.50;;;9.40;95.70;;;;;;4955780;29;20371;-80
2024/04/02 02:58:42;;;;;;;0.45;0.45;;;9.30;94.10;;;;;;4954371;29;20356;-79
2024/04/02 03:01:09;;;;;;;2.83;0.60;;;9.30;97.80;;;;;;4954177;29;20058;-79
2024/04/02 03:03:34;;;;;;;1.17;0.70;;;9.30;96.00;;;;;;4954112;29;20571;-80
2024/04/02 03:06:00;;;;;;;0.85;0.30;;;9.30;98.00;;;;;;4954135;29;20110;-80
2024/04/02 03:08:26;;;;;;;0.38;0.38;;;9.20;95.20;;;;;;4955500;28;20094;-79
2024/04/02 03:11:08;;;;;;;0.40;0.40;;;9.10;99.90;;;;;;4955396;29;20484;-79
2024/04/02 03:13:35;;;;;;;0.30;0.30;;;9.10;98.80;;;;;;4950166;29;20031;-80
2024/04/02 03:16:03;;;;;;;3.28;0.52;;;9.10;98.70;;;;;;4951252;29;20385;-80
2024/04/02 03:18:29;;;;;;;0.38;0.38;;;9.10;95.40;;;;;;4955373;29;20047;-80
2024/04/02 03:20:55;;;;;;;0.60;0.60;;;9.20;90.30;;;;;;4954010;29;20161;-80
2024/04/02 03:23:20;;;;;;;0.40;0.40;;;9.20;93.10;;;;;;4953403;28;20127;-80
2024/04/02 03:26:00;;;;;;;0.32;0.30;;;9.10;95.30;;;;;;4953880;28;20054;-79
2024/04/02 03:28:26;;;;;;;0.40;0.30;;;9.20;93.90;;;;;;4934228;29;20031;-79
2024/04/02 03:30:59;;;;;;;0.28;0.28;;;9.20;90.80;;;;;;4937681;29;20046;-80
2024/04/02 03:33:31;;;;;;;0.50;0.50;;;9.20;92.50;;;;;;4950314;28;20039;-79
2024/04/02 03:36:05;;;;;;;0.30;0.30;;;9.20;90.70;;;;;;4953388;29;20482;-79
2024/04/02 03:38:32;;;;;;;0.75;0.40;;;9.20;90.00;;;;;;4953598;29;20031;-79
2024/04/02 03:41:14;;;;;;;1.17;0.40;;;9.20;95.90;;;;;;4954761;29;20471;-80
2024/04/02 03:43:44;;;;;;;0.35;0.35;;;9.30;97.10;;;;;;4953542;29;20031;-79
2024/04/02 03:46:11;;;;;;;0.30;0.30;;;9.30;93.90;;;;;;4933691;29;20214;-79
2024/04/02 03:48:40;;;;;;;0.40;0.40;;;9.20;85.50;;;;;;4937583;29;20114;-79
2024/04/02 03:51:05;;;;;;;0.40;0.38;;;9.20;88.40;;;;;;4953300;29;20031;-80
2024/04/02 03:53:31;;;;;;;0.75;0.40;;;9.20;91.20;;;;;;4937078;29;20045;-80
2024/04/02 03:56:04;;;;;;;1.85;0.40;;;9.20;93.00;;;;;;4953306;29;20023;-79
2024/04/02 03:58:30;;;;;;;1.75;0.40;;;9.20;89.10;;;;;;4954517;29;20094;-79
2024/04/02 04:00:57;;;;;;;0.50;0.50;;;9.20;93.90;;;;;;4952799;29;20019;-79
2024/04/02 04:03:27;;;;;;;1.13;0.30;;;9.20;91.10;;;;;;4952519;29;20046;-80
2024/04/02 04:06:04;;;;;;;0.63;0.38;;;9.20;80.50;;;;;;4952833;28;20050;-80
2024/04/02 04:08:31;;;;;;;0.68;0.45;;;9.30;91.40;;;;;;4965622;28;20023;-79
2024/04/02 04:10:57;;;;;;;3.25;0.60;;;9.30;86.50;;;;;;4952871;28;20276;-79
2024/04/02 04:13:23;;;;;;;0.65;0.55;;;9.30;78.70;;;;;;4951754;29;20030;-79
2024/04/02 04:15:58;;;;;;;1.20;0.60;;;9.30;79.00;;;;;;4952926;29;20098;-79
2024/04/02 04:18:24;;;;;;;2.47;0.40;;;9.20;77.80;;;;;;4949738;29;20395;-79
2024/04/02 04:21:01;;;;;;;1.00;0.40;;;9.10;85.30;;;;;;4953977;29;20027;-79
2024/04/02 04:23:27;;;;;;;1.33;0.25;;;9.10;91.30;;;;;;4952720;28;20109;-80
2024/04/02 04:25:58;;;;;;;0.40;0.40;;;9.10;93.30;;;;;;4954263;29;20031;-79
2024/04/02 04:28:25;;;;;;;2.15;0.40;;;9.10;92.10;;;;;;4952728;29;20046;-79
2024/04/02 04:31:02;;;;;;;0.90;0.65;;;9.10;91.40;;;;;;4953803;29;20051;-79
2024/04/02 04:33:29;;;;;;;0.50;0.40;;;9.10;93.30;;;;;;4952475;29;20043;-79
2024/04/02 04:35:55;;;;;;;1.13;0.43;;;9.10;92.90;;;;;;4953276;28;20054;-79
2024/04/02 04:38:22;;;;;;;0.88;0.50;;;9.10;93.10;;;;;;4952178;29;20024;-79
2024/04/02 04:40:48;;;;;;;1.23;0.60;;;9.00;93.30;;;;;;4952571;29;20295;-79
2024/04/02 04:43:18;;;;;;;0.90;0.57;;;9.10;93.30;;;;;;4953720;29;20043;-79
2024/04/02 04:45:51;;;;;;;0.30;0.30;;;9.00;94.40;;;;;;4952228;28;20034;-79
2024/04/02 04:48:17;;;;;;;1.00;0.60;;;9.00;94.30;;;;;;4952689;28;20105;-79
2024/04/02 04:50:42;;;;;;;0.65;0.65;;;9.00;92.60;;;;;;4952369;29;20487;-79
2024/04/02 04:53:09;;;;;;;0.57;0.40;;;8.90;92.00;;;;;;4933146;29;20050;-79
2024/04/02 04:55:35;;;;;;;3.15;0.60;;;9.00;96.30;;;;;;4952226;29;20023;-79
2024/04/02 04:58:01;;;;;;;0.35;0.30;;;9.00;96.80;;;;;;4952106;29;20071;-79
2024/04/02 05:00:27;;;;;;;0.40;0.40;;;9.10;95.20;;;;;;4953192;29;20066;-80
2024/04/02 05:02:52;;;;;;;0.40;0.40;;;9.00;90.50;;;;;;4951419;29;20122;-79
2024/04/02 05:05:18;;;;;;;1.42;0.45;;;9.00;88.50;;;;;;4935486;29;20031;-80
2024/04/02 05:07:56;;;;;;;0.73;0.50;;;9.00;85.10;;;;;;4950883;29;20021;-79
2024/04/02 05:10:23;;;;;;;0.40;0.40;;;8.90;89.60;;;;;;4949623;29;20038;-79
2024/04/02 05:12:49;;;;;;;0.60;0.40;;;8.90;92.60;;;;;;4951290;29;20027;-79
2024/04/02 05:15:14;;;;;;;1.13;0.50;;;9.00;88.30;;;;;;4951939;29;20365;-80
2024/04/02 05:17:40;;;;;;;0.70;0.70;;;8.90;83.30;;;;;;4949341;29;20075;-79
2024/04/02 05:20:06;;;;;;;0.60;0.60;;;9.00;77.80;;;;;;4946880;29;20369;-79
2024/04/02 05:22:32;;;;;;;1.30;0.80;;;9.00;72.20;;;;;;4930540;29;20403;-79
2024/04/02 05:24:58;;;;;;;1.65;0.80;;;9.10;64.60;;;;;;4966059;28;20027;-79
2024/04/02 05:27:23;;;;;;;0.50;0.50;;;9.10;77.00;;;;;;4948200;29;20075;-79
2024/04/02 05:29:49;;;;;;;0.82;0.70;;;9.10;82.80;;;;;;4950585;29;20047;-80
2024/04/02 05:32:15;;;;;;;0.63;0.40;;;9.20;73.70;;;;;;4946229;29;20090;-79
2024/04/02 05:34:41;;;;;;;11.45;2.17;;;9.20;64.00;;;;;;4964555;28;20384;-79
2024/04/02 05:37:06;;;;;;;2.80;0.60;;;9.30;63.10;;;;;;4952182;29;20031;-79
2024/04/02 05:39:32;;;;;;;0.90;0.60;;;9.20;57.50;;;;;;4953074;29;20450;-79
2024/04/02 05:41:58;;;;;;;0.88;0.70;;;9.20;52.00;;;;;;4951528;28;20023;-79
2024/04/02 05:44:23;;;;;;;1.08;0.65;;;9.20;59.80;;;;;;4951637;29;20038;-79
2024/04/02 05:46:49;;;;;;;1.48;0.60;;;9.20;49.90;;;;;;4935677;29;20090;-79
2024/04/02 05:49:14;;;;;;;0.60;0.47;;;9.20;51.00;;;;;;4957030;29;20390;-79
2024/04/02 05:51:40;;;;;;;0.93;0.88;;;9.30;37.00;;;;;;4956543;29;20283;-79
2024/04/02 05:54:06;;;;;;;0.60;0.60;;;9.20;54.70;;;;;;4955355;29;20038;-79
2024/04/02 05:56:31;;;;;;;0.50;0.50;;;9.30;54.70;;;;;;4953293;28;20464;-79
2024/04/02 05:58:57;;;;;;;1.25;0.57;;;9.40;36.10;;;;;;4954105;29;20106;-79
2024/04/02 06:01:26;;;;;;;3.10;0.75;;;9.50;25.70;;;;;;4937808;29;20480;-79
2024/04/02 06:03:51;;;;;;;1.33;0.70;;;9.50;36.50;;;;;;4954257;29;20072;-79
2024/04/02 06:06:17;;;;;;;1.50;0.70;;;9.60;37.70;;;;;;4955587;28;20023;-79
2024/04/02 06:08:43;;;;;;;0.60;0.60;;;9.70;45.50;;;;;;4954233;29;20027;-79
2024/04/02 06:11:08;;;;;;;0.60;0.60;;;9.70;50.90;;;;;;4954014;29;20085;-79
2024/04/02 06:13:34;;;;;;;2.15;1.00;;;9.80;58.00;;;;;;4937303;29;20391;-79
2024/04/02 06:16:00;;;;;;;1.05;0.95;;;9.80;57.30;;;;;;4956434;29;20059;-79
2024/04/02 06:18:26;;;;;;;1.10;0.80;;;10.30;52.60;;;;;;4956404;29;20023;-79
2024/04/02 06:20:58;;;;;;;3.05;0.60;;;10.00;54.80;;;;;;4938964;29;20035;-79
2024/04/02 06:23:24;;;;;;;2.95;0.80;;;10.00;35.20;;;;;;4951631;29;20034;-79
2024/04/02 06:25:50;;;;;;;1.30;0.65;;;10.00;48.20;;;;;;4938873;28;20035;-79
2024/04/02 06:28:16;;;;;;;1.50;0.80;;;10.00;40.70;;;;;;4954784;28;20054;-79
2024/04/02 06:30:43;;;;;;;2.90;0.90;;;10.00;45.10;;;;;;4956056;28;20418;-79
2024/04/02 06:33:08;;;;;;;0.70;0.50;;;10.10;42.30;;;;;;4955960;29;20031;-79
2024/04/02 06:35:34;;;;;;;2.38;0.60;;;10.10;46.30;;;;;;4954406;29;20031;-79
2024/04/02 06:38:00;;;;;;;1.38;0.90;;;10.20;67.60;;;;;;4970702;28;20030;-79
2024/04/02 06:40:25;;;;;;;3.05;0.77;;;10.20;70.90;;;;;;4955852;28;20146;-79
2024/04/02 06:42:51;;;;;;;1.17;1.10;;;10.20;47.60;;;;;;4954291;29;20034;-79
2024/04/02 06:45:17;;;;;;;2.53;1.20;;;10.20;51.50;;;;;;4938641;29;20042;-79
2024/04/02 06:47:42;;;;;;;1.08;0.80;;;10.30;55.80;;;;;;4954568;29;20110;-79
2024/04/02 06:50:08;;;;;;;1.02;1.02;;;10.30;65.70;;;;;;4955833;29;20082;-79
2024/04/02 06:52:34;;;;;;;1.20;1.10;;;10.40;53.50;;;;;;4952373;28;20031;-79
2024/04/02 06:54:59;;;;;;;1.50;1.40;;;10.50;61.50;;;;;;4954346;29;20077;-79
2024/04/02 06:57:25;;;;;;;1.17;0.93;;;10.50;59.30;;;;;;4955760;29;20019;-79
2024/04/02 06:59:51;;;;;;;1.35;1.05;;;10.50;36.90;;;;;;4953856;29;20038;-79
2024/04/02 07:02:16;;;;;;;2.28;1.30;;;10.60;37.70;;;;;;4955437;29;20115;-79
2024/04/02 07:04:43;;;;;;;1.10;1.00;;;10.70;36.10;;;;;;4955456;29;20039;-79
2024/04/02 07:07:09;;;;;;;3.45;1.45;;;10.80;25.60;;;;;;4954072;29;20283;-79
2024/04/02 07:09:34;;;;;;;3.58;1.48;;;10.90;6.80;;;;;;4953959;29;20077;-79
2024/04/02 07:12:00;;;;;;;1.13;1.05;;;10.90;9.70;;;;;;4947633;29;20086;-78
2024/04/02 07:14:26;;;;;;;1.05;0.90;;;11.00;15.80;;;;;;4946240;29;20030;-79
2024/04/02 07:16:53;;;;;;;2.35;0.90;;;11.00;60.30;;;;;;4949307;29;20031;-78
2024/04/02 07:19:19;;;;;;;3.33;1.00;;;11.10;65.60;;;;;;4949937;29;20035;-77
2024/04/02 07:21:44;;;;;;;1.33;1.23;;;11.20;78.50;;;;;;4949079;29;20019;-79
2024/04/02 07:24:10;;;;;;;4.55;1.40;;;11.30;34.30;;;;;;4933222;28;20042;-78
2024/04/02 07:26:36;;;;;;;2.25;1.20;;;11.30;26.60;;;;;;4951181;29;20497;-79
2024/04/02 07:29:01;;;;;;;1.42;1.20;;;11.40;30.20;;;;;;4948936;29;20031;-78
2024/04/02 07:31:28;;;;;;;3.88;1.10;;;11.50;29.20;;;;;;4933700;29;20118;-79
2024/04/02 07:33:54;;;;;;;3.35;1.10;;;11.50;32.70;;;;;;4949200;29;20495;-79
2024/04/02 07:36:20;;;;;;;1.52;0.93;;;11.70;45.60;;;;;;4948759;29;20027;-78
2024/04/02 07:38:46;;;;;;;0.93;0.90;;;11.80;49.40;;;;;;4949516;28;20023;-79
2024/04/02 07:41:11;;;;;;;0.70;0.70;;;11.80;68.50;;;;;;4948535;29;20023;-78
2024/04/02 07:43:37;;;;;;;2.28;0.70;;;11.90;70.30;;;;;;4950731;28;20034;-79
2024/04/02 07:46:03;;;;;;;2.70;1.10;;;12.10;84.50;;;;;;4948627;29;20035;-78
2024/04/02 07:48:29;;;;;;;2.15;1.20;;;12.20;80.40;;;;;;4947370;29;20082;-78
2024/04/02 07:50:56;;;;;;;7.25;1.70;;;12.30;77.10;;;;;;4950580;29;20028;-79
2024/04/02 07:53:23;;;;;;;1.77;1.27;;;12.30;65.70;;;;;;4932586;29;20081;-79
2024/04/02 07:55:50;;;;;;;3.70;1.17;;;12.40;58.30;;;;;;4949794;29;20023;-79
2024/04/02 07:58:15;;;;;;;3.70;0.80;;;12.50;66.80;;;;;;4949407;28;20023;-79
2024/04/02 08:00:44;;;;;;;2.00;1.00;;;12.50;44.40;;;;;;4949829;29;20031;-79
2024/04/02 08:03:10;;;;;;;2.70;0.43;;;12.60;1.00;;;;;;4942322;29;20384;-78
2024/04/02 08:05:36;;;;;;;2.65;0.40;;;12.60;99.90;;;;;;4948945;29;20063;-79
2024/04/02 08:08:03;;;;;;;0.73;0.50;;;12.70;99.90;;;;;;4964237;28;20065;-78
2024/04/02 08:10:29;;;;;;;0.68;0.50;;;12.70;99.90;;;;;;4949078;28;20055;-78
2024/04/02 08:12:54;;;;;;;0.50;0.40;;;12.80;99.90;;;;;;4948423;29;20066;-78
2024/04/02 08:15:20;;;;;;;1.95;0.50;;;12.80;1.00;;;;;;4932312;29;20050;-78
2024/04/02 08:17:46;;;;;;;0.50;0.50;;;12.80;99.90;;;;;;4949043;28;20433;-77
2024/04/02 08:20:11;;;;;;;2.60;0.77;;;12.90;1.00;;;;;;4947788;28;20047;-77
2024/04/02 08:22:37;;;;;;;4.47;1.77;;;12.90;1.00;;;;;;4930752;29;20499;-77
2024/04/02 08:25:03;;;;;;;1.52;0.63;;;12.90;1.00;;;;;;4948957;29;20130;-77
2024/04/02 08:27:29;;;;;;;0.82;0.40;;;13.00;94.10;;;;;;4949335;29;20092;-79
2024/04/02 08:29:55;;;;;;;1.75;0.63;;;13.00;45.00;;;;;;4948394;28;20070;-77
2024/04/02 08:32:22;;;;;;;0.77;0.47;;;13.00;45.20;;;;;;4947938;29;20042;-78
2024/04/02 08:34:48;;;;;;;0.80;0.52;;;13.10;99.90;;;;;;4948610;28;20649;-78
2024/04/02 08:37:14;;;;;;;2.70;0.98;;;13.10;99.90;;;;;;4953930;29;20024;-78
2024/04/02 08:39:40;;;;;;;1.33;0.50;;;13.20;99.90;;;;;;4936517;29;20030;-78
2024/04/02 08:42:06;;;;;;;3.63;1.10;;;13.20;1.00;;;;;;4953723;29;20043;-78
2024/04/02 08:44:34;;;;;;;1.52;0.43;;;13.20;1.00;;;;;;4952275;29;20447;-77
2024/04/02 08:47:00;;;;;;;0.90;0.60;;;13.20;99.90;;;;;;4953877;29;20064;-78
2024/04/02 08:49:26;;;;;;;0.47;0.47;;;13.40;1.00;;;;;;4953584;29;20502;-78
2024/04/02 08:51:55;;;;;;;0.50;0.50;;;13.40;99.90;;;;;;4952126;29;20016;-78
2024/04/02 08:54:21;;;;;;;0.73;0.60;;;13.50;99.90;;;;;;4953449;29;20530;-78
2024/04/02 08:56:48;;;;;;;2.88;0.57;;;13.50;99.90;;;;;;4953578;29;20573;-77
2024/04/02 08:59:14;;;;;;;1.20;0.38;;;13.70;99.90;;;;;;4953462;29;20102;-77
2024/04/02 09:01:41;;;;;;;1.20;0.40;;;13.80;99.90;;;;;;4951930;28;20182;-78
2024/04/02 09:04:06;;;;;;;2.00;0.40;;;13.90;99.90;;;;;;4952099;28;20031;-77
2024/04/02 09:06:32;;;;;;;0.77;0.30;;;14.10;99.90;;;;;;4935930;29;20388;-78
2024/04/02 09:08:58;;;;;;;0.40;0.40;;;14.10;99.90;;;;;;4952196;29;20109;-77
2024/04/02 09:11:27;;;;;;;1.52;0.57;;;14.10;99.90;;;;;;4951966;29;20035;-77
2024/04/02 09:13:52;;;;;;;0.50;0.50;;;14.00;99.90;;;;;;4951892;29;20031;-77
2024/04/02 09:16:19;;;;;;;0.82;0.40;;;14.10;99.90;;;;;;4951987;29;20049;-78
2024/04/02 09:18:45;;;;;;;0.60;0.60;;;14.00;99.90;;;;;;4949527;29;20042;-77
2024/04/02 09:21:15;;;;;;;0.75;0.38;;;14.00;99.90;;;;;;4952849;29;20111;-78
2024/04/02 09:23:40;;;;;;;1.73;0.40;;;14.00;1.00;;;;;;4952319;29;20043;-77
2024/04/02 09:26:10;;;;;;;0.95;0.20;;;14.00;99.90;;;;;;4953267;29;20488;-77
2024/04/02 09:28:39;;;;;;;3.03;0.88;;;14.00;99.90;;;;;;4951887;29;20023;-78
2024/04/02 09:31:05;;;;;;;0.57;0.40;;;14.00;99.90;;;;;;4951436;28;20677;-77
2024/04/02 09:33:31;;;;;;;2.08;0.40;;;14.00;99.90;;;;;;4953121;29;20031;-77
2024/04/02 09:36:09;;;;;;;0.70;0.43;;;14.10;99.90;;;;;;4953086;29;20044;-77
2024/04/02 09:38:40;;;;;;;3.45;0.45;;;14.20;99.90;;;;;;4948606;28;20373;-77
2024/04/02 09:41:06;;;;;;;0.40;0.40;;;14.30;99.90;;;;;;4953019;29;20103;-77
2024/04/02 09:43:36;;;;;;;1.45;0.50;;;14.40;99.90;;;;;;4950641;29;20039;-78
2024/04/02 09:46:03;;;;;;;7.68;0.95;;;14.50;99.90;;;;;;4950067;29;20034;-77
2024/04/02 09:48:39;;;;;;;0.95;0.30;;;14.50;99.90;;;;;;4951859;28;20056;-77
2024/04/02 09:51:06;;;;;;;0.40;0.40;;;14.50;99.90;;;;;;4953536;29;20019;-77
2024/04/02 09:53:33;;;;;;;0.77;0.52;;;14.50;99.90;;;;;;4954051;29;20038;-77
2024/04/02 09:56:00;;;;;;;0.60;0.50;;;14.50;99.90;;;;;;4952558;29;20027;-77
2024/04/02 09:58:27;;;;;;;1.00;0.40;;;14.40;1.00;;;;;;4954001;29;20027;-77
2024/04/02 10:00:57;;;;;;;1.40;0.82;;;14.50;1.00;;;;;;4953304;29;20031;-77
2024/04/02 10:03:26;;;;;;;3.47;0.63;;;14.50;1.00;;;;;;4953931;29;20035;-77
2024/04/02 10:05:52;;;;;;;2.97;0.63;;;14.60;29.90;;;;;;4953797;29;20487;-77
2024/04/02 10:08:25;;;;;;;4.03;0.50;;;14.70;99.90;;;;;;4953812;29;20038;-77
2024/04/02 10:10:53;;;;;;;1.67;0.55;;;14.70;63.50;;;;;;4936452;29;20031;-77
2024/04/02 10:13:19;;;;;;;1.25;0.70;;;14.70;2.80;;;;;;4954029;28;20073;-77
2024/04/02 10:15:54;;;;;;;1.95;0.50;;;14.70;39.60;;;;;;4952853;29;20032;-77
2024/04/02 10:18:23;;;;;;;3.70;0.93;;;14.80;99.90;;;;;;4954083;29;20023;-77
2024/04/02 10:20:56;;;;;;;2.13;0.70;;;14.90;18.20;;;;;;4953833;29;20023;-77
2024/04/02 10:23:22;;;;;;;3.08;0.90;;;14.90;99.90;;;;;;4952899;28;20031;-77
2024/04/02 10:25:48;;;;;;;2.47;0.70;;;14.90;99.90;;;;;;4951944;29;20365;-77
2024/04/02 10:28:22;;;;;;;1.95;1.15;;;15.00;99.90;;;;;;4951862;29;20086;-77
2024/04/02 10:30:48;;;;;;;1.00;1.00;;;15.00;1.00;;;;;;4952786;29;20075;-77
2024/04/02 10:33:21;;;;;;;1.02;0.82;;;15.10;1.00;;;;;;4952052;28;20078;-77
2024/04/02 10:35:47;;;;;;;2.45;0.90;;;15.00;1.00;;;;;;4956123;29;20611;-77
2024/04/02 10:38:14;;;;;;;3.17;0.98;;;15.10;99.90;;;;;;4939096;29;20031;-77
2024/04/02 10:40:40;;;;;;;4.15;1.10;;;15.10;48.30;;;;;;4955994;29;20034;-77
2024/04/02 10:43:05;;;;;;;3.97;1.23;;;15.20;99.90;;;;;;4956240;29;20387;-77
2024/04/02 10:45:31;;;;;;;2.47;1.23;;;15.20;99.90;;;;;;4955934;28;20028;-77
2024/04/02 10:47:57;;;;;;;6.20;1.70;;;15.20;99.90;;;;;;4938887;29;20118;-77
2024/04/02 10:50:24;;;;;;;3.28;1.80;;;15.30;99.90;;;;;;4955981;29;20027;-77
2024/04/02 10:52:51;;;;;;;6.22;1.63;;;15.40;4.60;;;;;;4955919;29;20057;-77
2024/04/02 10:55:17;;;;;;;7.55;1.48;;;15.40;99.90;;;;;;4955874;29;20034;-77
2024/04/02 10:57:43;;;;;;;3.30;1.42;;;15.50;99.90;;;;;;4955816;29;20027;-77
2024/04/02 11:00:13;;;;;;;8.13;1.70;;;15.50;99.90;;;;;;4955877;29;20054;-77
2024/04/02 11:02:41;;;;;;;3.50;1.58;;;;;;;;;;4955559;29;20038;-77
2024/04/02 11:05:16;;;;;;;6.88;1.20;;;15.70;6.30;;;;;;4955811;29;20038;-77
2024/04/02 11:07:47;;;;;;;4.20;1.52;;;15.80;1.00;;;;;;4953974;29;20038;-76
2024/04/02 11:10:13;;;;;;;10.45;1.92;;;15.80;1.00;;;;;;4955604;29;20376;-77
2024/04/02 11:12:39;;;;;;;2.78;1.33;;;15.90;99.90;;;;;;4955382;29;20027;-77
2024/04/02 11:15:10;;;;;;;5.75;1.73;;;15.90;1.00;;;;;;4938243;29;20118;-77
2024/04/02 11:17:40;;;;;;;4.28;1.25;;;15.90;1.00;;;;;;4955433;29;20082;-77
2024/04/02 11:20:10;;;;;;;5.15;1.13;;;16.00;1.00;;;;;;4955454;29;20078;-77
2024/04/02 11:25:21;;;;;;;2.95;1.00;;;16.30;1.00;;;;;;4952317;29;20070;-76
2024/04/02 11:27:47;;;;;;;6.30;1.40;;;16.50;99.90;;;;;;4955163;29;20046;-77
2024/04/02 11:30:15;;;;;;;3.20;1.30;;;16.60;99.90;;;;;;4955196;29;20040;-77
2024/04/02 11:32:41;;;;;;;6.72;1.95;;;16.60;99.90;;;;;;4951354;29;20042;-77
2024/04/02 11:35:17;;;;;;;5.05;1.33;;;16.60;99.90;;;;;;4955066;29;20023;-76
2024/04/02 11:37:44;;;;;;;3.60;1.48;;;16.70;99.90;;;;;;4954409;29;20028;-77
2024/04/02 11:40:16;;;;;;;3.63;1.63;;;16.70;99.90;;;;;;4954917;29;20272;-76
2024/04/02 11:42:42;;;;;;;9.23;1.50;;;16.70;99.90;;;;;;4954892;29;20075;-76
2024/04/02 11:45:09;;;;;;;2.88;1.17;;;16.80;99.90;;;;;;4954734;28;20055;-76
2024/04/02 11:47:35;;;;;;;3.80;1.05;;;16.90;99.90;;;;;;4953483;29;20023;-76
2024/04/02 11:50:01;;;;;;;6.32;1.33;;;17.00;99.90;;;;;;4954929;28;20027;-76
2024/04/02 11:52:27;;;;;;;3.65;0.95;;;17.00;99.90;;;;;;4947153;29;20458;-76
2024/04/02 11:54:53;;;;;;;3.05;1.23;;;17.10;99.90;;;;;;4954505;29;20028;-76
2024/04/02 12:00:14;;;;;;;2.00;1.17;;;17.30;44.20;;;;;;4948645;29;20042;-76
2024/04/02 12:02:49;;;;;;;7.05;1.58;;;17.30;24.80;;;;;;4954169;28;20007;-76
2024/04/02 12:05:16;;;;;;;4.32;1.08;;;17.40;99.90;;;;;;4954489;29;20023;-77
2024/04/02 12:07:45;;;;;;;3.45;1.15;;;17.40;95.10;;;;;;4954532;29;20537;-76
2024/04/02 12:10:12;;;;;;;7.40;1.10;;;17.50;1.00;;;;;;4954377;29;20262;-76
2024/04/02 12:12:38;;;;;;;2.78;1.25;;;17.60;28.10;;;;;;4954222;29;20279;-76
2024/04/02 12:15:08;;;;;;;7.43;1.30;;;17.70;99.90;;;;;;4954242;29;20024;-76
2024/04/02 12:17:35;;;;;;;2.25;1.08;;;17.80;1.00;;;;;;4954279;29;20098;-76
2024/04/02 12:20:01;;;;;;;3.80;1.73;;;17.80;25.70;;;;;;4953985;28;20368;-77
2024/04/02 12:22:27;;;;;;;8.05;1.60;;;18.00;53.10;;;;;;4952445;29;20078;-76
2024/04/02 12:24:56;;;;;;;4.35;1.13;;;18.00;1.00;;;;;;4954221;29;20031;-76
2024/04/02 12:27:23;;;;;;;0.93;0.82;;;17.90;1.00;;;;;;4954236;28;20039;-76
2024/04/02 12:29:56;;;;;;;1.73;1.10;;;18.00;1.00;;;;;;4954134;29;20059;-76
2024/04/02 12:32:27;;;;;;;3.95;1.30;;;18.10;1.00;;;;;;4952432;29;20039;-76
2024/04/02 12:34:53;;;;;;;3.28;1.17;;;18.20;1.00;;;;;;4952722;29;20115;-76
2024/04/02 12:37:19;;;;;;;5.07;1.40;;;18.30;1.00;;;;;;4953933;29;20058;-76
2024/04/02 12:39:46;;;;;;;3.05;1.27;;;18.30;1.00;;;;;;4953887;29;20030;-76
2024/04/02 12:42:13;;;;;;;3.65;1.42;;;18.40;1.00;;;;;;4952409;28;20503;-76
2024/04/02 12:44:40;;;;;;;3.67;1.10;;;18.60;1.00;;;;;;4952542;28;20027;-76
2024/04/02 12:47:08;;;;;;;3.38;1.13;;;18.70;1.00;;;;;;4953742;29;20019;-76
2024/04/02 12:49:40;;;;;;;1.73;1.13;;;18.70;1.00;;;;;;4953821;29;20023;-76
2024/04/02 12:52:07;;;;;;;6.70;1.42;;;18.80;1.00;;;;;;4951096;29;20035;-76
2024/04/02 12:54:33;;;;;;;3.47;1.30;;;18.90;1.00;;;;;;4953660;28;20025;-76
2024/04/02 12:56:58;;;;;;;3.85;1.10;;;18.90;1.00;;;;;;4953018;28;20024;-76